sensor_id;sensor_type;location;lat;lon;timestamp;P1;durP1;ratioP1;P2;durP2;ratioP2
840;SDS011;406;48.566;13.450;2024-02-15T00:01:42;8.10;;;6.93;;
840;SDS011;406;48.566;13.450;2024-02-15T00:04:08;7.77;;;6.80;;
840;SDS011;406;48.566;13.450;2024-02-15T00:06:37;7.57;;;6.87;;
840;SDS011;406;48.566;13.450;2024-02-15T00:09:04;10.70;;;7.10;;
840;SDS011;406;48.566;13.450;2024-02-15T00:11:30;8.10;;;7.10;;
840;SDS011;406;48.566;13.450;2024-02-15T00:13:57;9.43;;;6.53;;
840;SDS011;406;48.566;13.450;2024-02-15T00:16:24;8.87;;;6.30;;
840;SDS011;406;48.566;13.450;2024-02-15T00:18:51;8.23;;;7.43;;
840;SDS011;406;48.566;13.450;2024-02-15T00:21:18;8.37;;;7.40;;
840;SDS011;406;48.566;13.450;2024-02-15T00:23:45;8.73;;;7.20;;
840;SDS011;406;48.566;13.450;2024-02-15T00:26:11;11.30;;;6.93;;
840;SDS011;406;48.566;13.450;2024-02-15T00:28:40;8.20;;;7.40;;
840;SDS011;406;48.566;13.450;2024-02-15T00:31:07;9.37;;;6.80;;
840;SDS011;406;48.566;13.450;2024-02-15T00:33:34;9.00;;;7.70;;
840;SDS011;406;48.566;13.450;2024-02-15T00:36:03;8.97;;;6.10;;
840;SDS011;406;48.566;13.450;2024-02-15T00:38:33;8.17;;;7.10;;
840;SDS011;406;48.566;13.450;2024-02-15T00:41:01;10.70;;;8.13;;
840;SDS011;406;48.566;13.450;2024-02-15T00:43:27;7.87;;;7.07;;
840;SDS011;406;48.566;13.450;2024-02-15T00:45:54;10.97;;;7.07;;
840;SDS011;406;48.566;13.450;2024-02-15T00:48:21;8.63;;;7.00;;
840;SDS011;406;48.566;13.450;2024-02-15T00:50:47;8.37;;;7.47;;
840;SDS011;406;48.566;13.450;2024-02-15T00:53:14;9.73;;;7.60;;
840;SDS011;406;48.566;13.450;2024-02-15T00:55:42;15.63;;;8.67;;
840;SDS011;406;48.566;13.450;2024-02-15T00:58:09;9.37;;;7.77;;
840;SDS011;406;48.566;13.450;2024-02-15T01:00:36;10.10;;;8.63;;
840;SDS011;406;48.566;13.450;2024-02-15T01:03:02;10.10;;;8.07;;
840;SDS011;406;48.566;13.450;2024-02-15T01:05:29;9.27;;;7.20;;
840;SDS011;406;48.566;13.450;2024-02-15T01:07:56;12.63;;;8.40;;
840;SDS011;406;48.566;13.450;2024-02-15T01:10:23;10.50;;;7.30;;
840;SDS011;406;48.566;13.450;2024-02-15T01:12:53;9.80;;;6.97;;
840;SDS011;406;48.566;13.450;2024-02-15T01:15:19;8.50;;;7.70;;
840;SDS011;406;48.566;13.450;2024-02-15T01:17:46;8.43;;;7.53;;
840;SDS011;406;48.566;13.450;2024-02-15T01:20:13;10.20;;;8.47;;
840;SDS011;406;48.566;13.450;2024-02-15T01:22:40;10.47;;;7.73;;
840;SDS011;406;48.566;13.450;2024-02-15T01:25:06;9.40;;;7.30;;
840;SDS011;406;48.566;13.450;2024-02-15T01:27:33;8.33;;;7.47;;
840;SDS011;406;48.566;13.450;2024-02-15T01:30:00;10.90;;;7.37;;
840;SDS011;406;48.566;13.450;2024-02-15T01:32:27;9.13;;;7.50;;
840;SDS011;406;48.566;13.450;2024-02-15T01:34:53;8.13;;;6.60;;
840;SDS011;406;48.566;13.450;2024-02-15T01:37:21;10.53;;;7.10;;
840;SDS011;406;48.566;13.450;2024-02-15T01:39:48;7.73;;;6.90;;
840;SDS011;406;48.566;13.450;2024-02-15T01:42:15;8.23;;;6.87;;
840;SDS011;406;48.566;13.450;2024-02-15T01:44:41;8.37;;;6.97;;
840;SDS011;406;48.566;13.450;2024-02-15T01:47:10;6.90;;;6.20;;
840;SDS011;406;48.566;13.450;2024-02-15T01:49:37;8.43;;;6.53;;
840;SDS011;406;48.566;13.450;2024-02-15T01:52:04;9.20;;;6.90;;
840;SDS011;406;48.566;13.450;2024-02-15T01:54:32;10.53;;;7.27;;
840;SDS011;406;48.566;13.450;2024-02-15T01:56:58;11.10;;;7.77;;
840;SDS011;406;48.566;13.450;2024-02-15T01:59:25;9.50;;;7.53;;
840;SDS011;406;48.566;13.450;2024-02-15T02:01:52;7.23;;;6.20;;
840;SDS011;406;48.566;13.450;2024-02-15T02:04:18;9.53;;;7.30;;
840;SDS011;406;48.566;13.450;2024-02-15T02:06:45;12.33;;;7.80;;
840;SDS011;406;48.566;13.450;2024-02-15T02:09:12;7.60;;;6.83;;
840;SDS011;406;48.566;13.450;2024-02-15T02:11:39;12.43;;;6.77;;
840;SDS011;406;48.566;13.450;2024-02-15T02:14:06;6.80;;;6.10;;
840;SDS011;406;48.566;13.450;2024-02-15T02:16:32;8.93;;;6.40;;
840;SDS011;406;48.566;13.450;2024-02-15T02:18:59;7.70;;;6.90;;
840;SDS011;406;48.566;13.450;2024-02-15T02:21:26;8.67;;;7.77;;
840;SDS011;406;48.566;13.450;2024-02-15T02:23:55;8.77;;;6.97;;
840;SDS011;406;48.566;13.450;2024-02-15T02:26:22;9.70;;;7.00;;
840;SDS011;406;48.566;13.450;2024-02-15T02:28:49;10.53;;;7.83;;
840;SDS011;406;48.566;13.450;2024-02-15T02:31:16;8.13;;;6.90;;
840;SDS011;406;48.566;13.450;2024-02-15T02:33:44;8.83;;;6.50;;
840;SDS011;406;48.566;13.450;2024-02-15T02:36:15;8.77;;;7.93;;
840;SDS011;406;48.566;13.450;2024-02-15T02:38:41;6.27;;;5.67;;
840;SDS011;406;48.566;13.450;2024-02-15T02:41:11;9.67;;;7.20;;
840;SDS011;406;48.566;13.450;2024-02-15T02:43:39;7.70;;;6.60;;
840;SDS011;406;48.566;13.450;2024-02-15T02:46:06;8.27;;;7.17;;
840;SDS011;406;48.566;13.450;2024-02-15T02:48:33;7.73;;;7.00;;
840;SDS011;406;48.566;13.450;2024-02-15T02:51:00;8.10;;;6.57;;
840;SDS011;406;48.566;13.450;2024-02-15T02:53:26;6.93;;;5.80;;
840;SDS011;406;48.566;13.450;2024-02-15T02:55:53;8.40;;;7.10;;
840;SDS011;406;48.566;13.450;2024-02-15T02:58:20;7.20;;;6.43;;
840;SDS011;406;48.566;13.450;2024-02-15T03:00:47;7.00;;;6.30;;
840;SDS011;406;48.566;13.450;2024-02-15T03:03:14;7.33;;;6.30;;
840;SDS011;406;48.566;13.450;2024-02-15T03:05:40;6.37;;;5.60;;
840;SDS011;406;48.566;13.450;2024-02-15T03:08:14;12.57;;;6.90;;
840;SDS011;406;48.566;13.450;2024-02-15T03:10:41;9.80;;;7.17;;
840;SDS011;406;48.566;13.450;2024-02-15T03:13:09;10.17;;;6.67;;
840;SDS011;406;48.566;13.450;2024-02-15T03:15:35;9.00;;;6.67;;
840;SDS011;406;48.566;13.450;2024-02-15T03:18:02;9.17;;;7.50;;
840;SDS011;406;48.566;13.450;2024-02-15T03:20:33;8.00;;;6.57;;
840;SDS011;406;48.566;13.450;2024-02-15T03:23:01;9.90;;;6.60;;
840;SDS011;406;48.566;13.450;2024-02-15T03:25:28;7.03;;;6.37;;
840;SDS011;406;48.566;13.450;2024-02-15T03:27:56;7.43;;;6.70;;
840;SDS011;406;48.566;13.450;2024-02-15T03:30:26;7.50;;;6.67;;
840;SDS011;406;48.566;13.450;2024-02-15T03:32:53;7.73;;;6.77;;
840;SDS011;406;48.566;13.450;2024-02-15T03:35:21;8.70;;;7.40;;
840;SDS011;406;48.566;13.450;2024-02-15T03:37:49;9.60;;;6.27;;
840;SDS011;406;48.566;13.450;2024-02-15T03:40:19;9.57;;;7.47;;
840;SDS011;406;48.566;13.450;2024-02-15T03:42:47;7.90;;;6.90;;
840;SDS011;406;48.566;13.450;2024-02-15T03:45:14;7.40;;;6.60;;
840;SDS011;406;48.566;13.450;2024-02-15T03:47:40;9.00;;;7.60;;
840;SDS011;406;48.566;13.450;2024-02-15T03:50:07;8.43;;;6.90;;
840;SDS011;406;48.566;13.450;2024-02-15T03:52:36;8.53;;;7.13;;
840;SDS011;406;48.566;13.450;2024-02-15T03:55:03;9.67;;;7.33;;
840;SDS011;406;48.566;13.450;2024-02-15T03:57:30;8.07;;;6.87;;
840;SDS011;406;48.566;13.450;2024-02-15T03:59:58;7.83;;;7.00;;
840;SDS011;406;48.566;13.450;2024-02-15T04:02:25;7.20;;;6.50;;
840;SDS011;406;48.566;13.450;2024-02-15T04:04:53;8.43;;;7.00;;
840;SDS011;406;48.566;13.450;2024-02-15T04:07:24;9.13;;;6.80;;
840;SDS011;406;48.566;13.450;2024-02-15T04:09:53;7.90;;;7.10;;
840;SDS011;406;48.566;13.450;2024-02-15T04:12:20;10.07;;;7.07;;
840;SDS011;406;48.566;13.450;2024-02-15T04:14:47;7.73;;;6.47;;
840;SDS011;406;48.566;13.450;2024-02-15T04:17:15;9.37;;;7.20;;
840;SDS011;406;48.566;13.450;2024-02-15T04:19:48;9.97;;;7.27;;
840;SDS011;406;48.566;13.450;2024-02-15T04:22:16;6.73;;;6.13;;
840;SDS011;406;48.566;13.450;2024-02-15T04:24:43;7.73;;;6.20;;
840;SDS011;406;48.566;13.450;2024-02-15T04:27:11;8.03;;;6.27;;
840;SDS011;406;48.566;13.450;2024-02-15T04:29:38;7.30;;;6.50;;
840;SDS011;406;48.566;13.450;2024-02-15T04:32:07;7.37;;;6.23;;
840;SDS011;406;48.566;13.450;2024-02-15T04:34:38;7.97;;;5.80;;
840;SDS011;406;48.566;13.450;2024-02-15T04:37:05;10.40;;;6.27;;
840;SDS011;406;48.566;13.450;2024-02-15T04:39:35;9.10;;;6.00;;
840;SDS011;406;48.566;13.450;2024-02-15T04:42:02;7.17;;;6.50;;
840;SDS011;406;48.566;13.450;2024-02-15T04:44:31;7.23;;;6.17;;
840;SDS011;406;48.566;13.450;2024-02-15T04:47:01;6.83;;;5.60;;
840;SDS011;406;48.566;13.450;2024-02-15T04:49:31;8.00;;;6.87;;
840;SDS011;406;48.566;13.450;2024-02-15T04:51:58;10.70;;;7.00;;
840;SDS011;406;48.566;13.450;2024-02-15T04:54:28;7.17;;;6.57;;
840;SDS011;406;48.566;13.450;2024-02-15T04:56:55;6.20;;;5.60;;
840;SDS011;406;48.566;13.450;2024-02-15T04:59:23;9.10;;;6.63;;
840;SDS011;406;48.566;13.450;2024-02-15T05:01:52;9.47;;;6.77;;
840;SDS011;406;48.566;13.450;2024-02-15T05:04:19;6.57;;;5.90;;
840;SDS011;406;48.566;13.450;2024-02-15T05:06:46;7.73;;;6.67;;
840;SDS011;406;48.566;13.450;2024-02-15T05:09:13;8.70;;;6.50;;
840;SDS011;406;48.566;13.450;2024-02-15T05:11:40;8.67;;;6.33;;
840;SDS011;406;48.566;13.450;2024-02-15T05:14:14;8.40;;;6.10;;
840;SDS011;406;48.566;13.450;2024-02-15T05:16:45;8.70;;;6.70;;
840;SDS011;406;48.566;13.450;2024-02-15T05:19:14;7.00;;;5.90;;
840;SDS011;406;48.566;13.450;2024-02-15T05:21:44;10.60;;;6.43;;
840;SDS011;406;48.566;13.450;2024-02-15T05:24:12;7.50;;;6.10;;
840;SDS011;406;48.566;13.450;2024-02-15T05:26:40;8.40;;;7.50;;
840;SDS011;406;48.566;13.450;2024-02-15T05:29:10;7.13;;;6.43;;
840;SDS011;406;48.566;13.450;2024-02-15T05:31:37;8.57;;;6.67;;
840;SDS011;406;48.566;13.450;2024-02-15T05:34:05;7.03;;;6.30;;
840;SDS011;406;48.566;13.450;2024-02-15T05:36:34;8.03;;;6.07;;
840;SDS011;406;48.566;13.450;2024-02-15T05:39:01;6.80;;;6.10;;
840;SDS011;406;48.566;13.450;2024-02-15T05:41:29;6.90;;;6.20;;
840;SDS011;406;48.566;13.450;2024-02-15T05:43:56;7.90;;;6.30;;
840;SDS011;406;48.566;13.450;2024-02-15T05:46:24;7.43;;;6.00;;
840;SDS011;406;48.566;13.450;2024-02-15T05:48:51;7.87;;;6.53;;
840;SDS011;406;48.566;13.450;2024-02-15T05:51:22;7.20;;;6.40;;
840;SDS011;406;48.566;13.450;2024-02-15T05:53:49;7.50;;;6.37;;
840;SDS011;406;48.566;13.450;2024-02-15T05:56:16;7.20;;;6.50;;
840;SDS011;406;48.566;13.450;2024-02-15T05:58:43;9.73;;;7.57;;
840;SDS011;406;48.566;13.450;2024-02-15T06:01:10;10.23;;;6.77;;
840;SDS011;406;48.566;13.450;2024-02-15T06:03:39;7.33;;;6.60;;
840;SDS011;406;48.566;13.450;2024-02-15T06:06:07;8.30;;;7.50;;
840;SDS011;406;48.566;13.450;2024-02-15T06:08:34;8.27;;;7.17;;
840;SDS011;406;48.566;13.450;2024-02-15T06:11:01;7.10;;;6.40;;
840;SDS011;406;48.566;13.450;2024-02-15T06:13:28;8.67;;;7.37;;
840;SDS011;406;48.566;13.450;2024-02-15T06:15:55;8.47;;;6.90;;
840;SDS011;406;48.566;13.450;2024-02-15T06:18:25;9.77;;;7.73;;
840;SDS011;406;48.566;13.450;2024-02-15T06:20:55;8.90;;;7.43;;
840;SDS011;406;48.566;13.450;2024-02-15T06:23:26;7.77;;;6.77;;
840;SDS011;406;48.566;13.450;2024-02-15T06:25:55;8.90;;;7.63;;
840;SDS011;406;48.566;13.450;2024-02-15T06:28:24;8.87;;;7.37;;
840;SDS011;406;48.566;13.450;2024-02-15T06:31:09;8.17;;;6.97;;
840;SDS011;406;48.566;13.450;2024-02-15T06:33:55;11.43;;;7.60;;
840;SDS011;406;48.566;13.450;2024-02-15T06:36:46;7.87;;;6.70;;
840;SDS011;406;48.566;13.450;2024-02-15T06:39:32;9.50;;;7.17;;
840;SDS011;406;48.566;13.450;2024-02-15T06:42:09;11.17;;;7.67;;
840;SDS011;406;48.566;13.450;2024-02-15T06:44:37;13.63;;;6.97;;
840;SDS011;406;48.566;13.450;2024-02-15T06:47:07;7.60;;;6.63;;
840;SDS011;406;48.566;13.450;2024-02-15T06:49:39;9.17;;;7.43;;
840;SDS011;406;48.566;13.450;2024-02-15T06:52:07;9.17;;;7.40;;
840;SDS011;406;48.566;13.450;2024-02-15T06:54:34;8.63;;;7.73;;
840;SDS011;406;48.566;13.450;2024-02-15T06:57:02;7.67;;;6.97;;
840;SDS011;406;48.566;13.450;2024-02-15T06:59:30;10.80;;;7.90;;
840;SDS011;406;48.566;13.450;2024-02-15T07:02:01;7.90;;;6.63;;
840;SDS011;406;48.566;13.450;2024-02-15T07:04:31;16.40;;;9.20;;
840;SDS011;406;48.566;13.450;2024-02-15T07:06:58;12.30;;;9.40;;
840;SDS011;406;48.566;13.450;2024-02-15T07:09:26;10.20;;;7.80;;
840;SDS011;406;48.566;13.450;2024-02-15T07:11:54;9.60;;;7.10;;
840;SDS011;406;48.566;13.450;2024-02-15T07:14:21;9.37;;;7.17;;
840;SDS011;406;48.566;13.450;2024-02-15T07:16:48;9.43;;;8.27;;
840;SDS011;406;48.566;13.450;2024-02-15T07:19:16;9.57;;;7.23;;
840;SDS011;406;48.566;13.450;2024-02-15T07:21:43;10.33;;;7.20;;
840;SDS011;406;48.566;13.450;2024-02-15T07:24:10;9.10;;;7.67;;
840;SDS011;406;48.566;13.450;2024-02-15T07:26:36;10.50;;;9.40;;
840;SDS011;406;48.566;13.450;2024-02-15T07:29:03;10.50;;;7.70;;
840;SDS011;406;48.566;13.450;2024-02-15T07:31:34;8.53;;;7.30;;
840;SDS011;406;48.566;13.450;2024-02-15T07:34:01;8.70;;;7.67;;
840;SDS011;406;48.566;13.450;2024-02-15T07:36:28;11.07;;;7.13;;
840;SDS011;406;48.566;13.450;2024-02-15T07:38:54;8.60;;;6.73;;
840;SDS011;406;48.566;13.450;2024-02-15T07:41:28;7.93;;;6.40;;
840;SDS011;406;48.566;13.450;2024-02-15T07:43:54;12.27;;;7.40;;
840;SDS011;406;48.566;13.450;2024-02-15T07:46:22;7.03;;;6.33;;
840;SDS011;406;48.566;13.450;2024-02-15T07:48:48;7.77;;;6.97;;
840;SDS011;406;48.566;13.450;2024-02-15T07:51:16;9.87;;;6.70;;
840;SDS011;406;48.566;13.450;2024-02-15T07:53:44;8.80;;;6.77;;
840;SDS011;406;48.566;13.450;2024-02-15T07:56:12;8.50;;;7.13;;
840;SDS011;406;48.566;13.450;2024-02-15T07:58:43;9.47;;;7.10;;
840;SDS011;406;48.566;13.450;2024-02-15T08:01:18;8.70;;;5.80;;
840;SDS011;406;48.566;13.450;2024-02-15T08:03:47;7.93;;;6.97;;
840;SDS011;406;48.566;13.450;2024-02-15T08:06:15;9.43;;;7.30;;
840;SDS011;406;48.566;13.450;2024-02-15T08:08:42;7.97;;;7.00;;
840;SDS011;406;48.566;13.450;2024-02-15T08:11:16;6.57;;;5.47;;
840;SDS011;406;48.566;13.450;2024-02-15T08:13:46;8.53;;;6.47;;
840;SDS011;406;48.566;13.450;2024-02-15T08:16:16;8.97;;;6.20;;
840;SDS011;406;48.566;13.450;2024-02-15T08:18:44;8.93;;;6.83;;
840;SDS011;406;48.566;13.450;2024-02-15T08:21:13;6.70;;;5.67;;
840;SDS011;406;48.566;13.450;2024-02-15T08:23:39;8.70;;;5.17;;
840;SDS011;406;48.566;13.450;2024-02-15T08:26:06;6.27;;;5.57;;
840;SDS011;406;48.566;13.450;2024-02-15T08:28:33;6.47;;;5.83;;
840;SDS011;406;48.566;13.450;2024-02-15T08:31:00;7.53;;;6.30;;
840;SDS011;406;48.566;13.450;2024-02-15T08:33:27;6.43;;;5.80;;
840;SDS011;406;48.566;13.450;2024-02-15T08:35:55;8.03;;;5.70;;
840;SDS011;406;48.566;13.450;2024-02-15T08:38:22;7.67;;;6.10;;
840;SDS011;406;48.566;13.450;2024-02-15T08:40:49;8.67;;;7.77;;
840;SDS011;406;48.566;13.450;2024-02-15T08:43:15;8.90;;;6.80;;
840;SDS011;406;48.566;13.450;2024-02-15T08:45:42;7.93;;;7.13;;
840;SDS011;406;48.566;13.450;2024-02-15T08:48:10;6.03;;;5.43;;
840;SDS011;406;48.566;13.450;2024-02-15T08:50:37;7.50;;;6.00;;
840;SDS011;406;48.566;13.450;2024-02-15T08:53:03;9.43;;;6.53;;
840;SDS011;406;48.566;13.450;2024-02-15T08:55:33;6.70;;;5.47;;
840;SDS011;406;48.566;13.450;2024-02-15T08:58:02;7.40;;;5.70;;
840;SDS011;406;48.566;13.450;2024-02-15T09:00:30;6.77;;;6.07;;
840;SDS011;406;48.566;13.450;2024-02-15T09:02:56;7.20;;;5.27;;
840;SDS011;406;48.566;13.450;2024-02-15T09:05:23;7.63;;;6.87;;
840;SDS011;406;48.566;13.450;2024-02-15T09:07:50;7.70;;;6.00;;
840;SDS011;406;48.566;13.450;2024-02-15T09:10:18;7.27;;;5.90;;
840;SDS011;406;48.566;13.450;2024-02-15T09:12:45;6.47;;;5.87;;
840;SDS011;406;48.566;13.450;2024-02-15T09:15:15;6.93;;;5.43;;
840;SDS011;406;48.566;13.450;2024-02-15T09:17:43;6.60;;;5.70;;
840;SDS011;406;48.566;13.450;2024-02-15T09:20:13;6.77;;;6.07;;
840;SDS011;406;48.566;13.450;2024-02-15T09:22:47;6.03;;;5.43;;
840;SDS011;406;48.566;13.450;2024-02-15T09:25:15;6.23;;;5.60;;
840;SDS011;406;48.566;13.450;2024-02-15T09:27:42;6.07;;;5.57;;
840;SDS011;406;48.566;13.450;2024-02-15T09:30:09;9.40;;;4.90;;
840;SDS011;406;48.566;13.450;2024-02-15T09:32:36;10.20;;;6.13;;
840;SDS011;406;48.566;13.450;2024-02-15T09:35:03;9.20;;;5.20;;
840;SDS011;406;48.566;13.450;2024-02-15T09:37:34;5.47;;;4.90;;
840;SDS011;406;48.566;13.450;2024-02-15T09:40:08;7.03;;;5.30;;
840;SDS011;406;48.566;13.450;2024-02-15T09:42:37;15.30;;;6.50;;
840;SDS011;406;48.566;13.450;2024-02-15T09:45:07;6.27;;;5.67;;
840;SDS011;406;48.566;13.450;2024-02-15T09:47:37;6.07;;;5.30;;
840;SDS011;406;48.566;13.450;2024-02-15T09:52:34;7.07;;;5.90;;
840;SDS011;406;48.566;13.450;2024-02-15T09:55:04;8.87;;;5.53;;
840;SDS011;406;48.566;13.450;2024-02-15T09:57:31;10.23;;;5.90;;
840;SDS011;406;48.566;13.450;2024-02-15T09:59:59;6.70;;;5.40;;
840;SDS011;406;48.566;13.450;2024-02-15T10:02:35;5.90;;;4.93;;
840;SDS011;406;48.566;13.450;2024-02-15T10:05:05;6.10;;;5.50;;
840;SDS011;406;48.566;13.450;2024-02-15T10:07:31;6.27;;;5.63;;
840;SDS011;406;48.566;13.450;2024-02-15T10:10:01;5.27;;;4.83;;
840;SDS011;406;48.566;13.450;2024-02-15T10:12:43;6.17;;;5.57;;
840;SDS011;406;48.566;13.450;2024-02-15T10:15:09;6.90;;;5.40;;
840;SDS011;406;48.566;13.450;2024-02-15T10:17:36;5.27;;;4.53;;
840;SDS011;406;48.566;13.450;2024-02-15T10:20:03;5.80;;;5.00;;
840;SDS011;406;48.566;13.450;2024-02-15T10:22:31;10.00;;;5.67;;
840;SDS011;406;48.566;13.450;2024-02-15T10:25:10;6.03;;;4.87;;
840;SDS011;406;48.566;13.450;2024-02-15T10:27:39;8.93;;;6.10;;
840;SDS011;406;48.566;13.450;2024-02-15T10:30:16;6.83;;;5.00;;
840;SDS011;406;48.566;13.450;2024-02-15T10:32:46;4.97;;;4.40;;
840;SDS011;406;48.566;13.450;2024-02-15T10:35:21;5.57;;;4.97;;
840;SDS011;406;48.566;13.450;2024-02-15T10:37:48;4.50;;;3.90;;
840;SDS011;406;48.566;13.450;2024-02-15T10:40:22;5.70;;;4.73;;
840;SDS011;406;48.566;13.450;2024-02-15T10:42:51;7.17;;;4.67;;
840;SDS011;406;48.566;13.450;2024-02-15T10:45:18;4.37;;;3.97;;
840;SDS011;406;48.566;13.450;2024-02-15T10:47:46;4.70;;;4.30;;
840;SDS011;406;48.566;13.450;2024-02-15T10:50:15;5.47;;;4.17;;
840;SDS011;406;48.566;13.450;2024-02-15T10:52:55;6.60;;;4.83;;
840;SDS011;406;48.566;13.450;2024-02-15T10:55:33;4.90;;;4.23;;
840;SDS011;406;48.566;13.450;2024-02-15T10:58:05;5.33;;;4.53;;
840;SDS011;406;48.566;13.450;2024-02-15T11:00:33;5.40;;;4.13;;
840;SDS011;406;48.566;13.450;2024-02-15T11:03:04;4.67;;;4.20;;
840;SDS011;406;48.566;13.450;2024-02-15T11:05:35;4.30;;;3.47;;
840;SDS011;406;48.566;13.450;2024-02-15T11:08:04;4.37;;;3.50;;
840;SDS011;406;48.566;13.450;2024-02-15T11:10:33;4.17;;;3.70;;
840;SDS011;406;48.566;13.450;2024-02-15T11:13:01;6.30;;;4.40;;
840;SDS011;406;48.566;13.450;2024-02-15T11:15:40;4.43;;;3.20;;
840;SDS011;406;48.566;13.450;2024-02-15T11:18:08;3.60;;;3.00;;
840;SDS011;406;48.566;13.450;2024-02-15T11:23:02;4.30;;;3.90;;
840;SDS011;406;48.566;13.450;2024-02-15T11:25:33;4.17;;;3.43;;
840;SDS011;406;48.566;13.450;2024-02-15T11:30:49;5.90;;;2.80;;
840;SDS011;406;48.566;13.450;2024-02-15T11:38:33;5.53;;;3.20;;
840;SDS011;406;48.566;13.450;2024-02-15T11:41:01;6.30;;;3.30;;
840;SDS011;406;48.566;13.450;2024-02-15T11:46:17;4.17;;;3.00;;
840;SDS011;406;48.566;13.450;2024-02-15T11:48:45;3.90;;;3.40;;
840;SDS011;406;48.566;13.450;2024-02-15T11:51:29;5.97;;;4.20;;
840;SDS011;406;48.566;13.450;2024-02-15T11:54:05;4.97;;;3.73;;
840;SDS011;406;48.566;13.450;2024-02-15T11:59:15;3.50;;;3.07;;
840;SDS011;406;48.566;13.450;2024-02-15T12:01:59;5.70;;;3.73;;
840;SDS011;406;48.566;13.450;2024-02-15T12:04:44;6.63;;;4.00;;
840;SDS011;406;48.566;13.450;2024-02-15T12:07:39;4.80;;;3.83;;
840;SDS011;406;48.566;13.450;2024-02-15T12:10:24;4.10;;;2.73;;
840;SDS011;406;48.566;13.450;2024-02-15T12:13:09;3.33;;;2.83;;
840;SDS011;406;48.566;13.450;2024-02-15T12:15:56;4.53;;;2.83;;
840;SDS011;406;48.566;13.450;2024-02-15T12:18:41;3.27;;;2.10;;
840;SDS011;406;48.566;13.450;2024-02-15T12:21:09;1.83;;;1.50;;
840;SDS011;406;48.566;13.450;2024-02-15T12:23:38;2.80;;;1.70;;
840;SDS011;406;48.566;13.450;2024-02-15T12:26:07;3.93;;;2.40;;
840;SDS011;406;48.566;13.450;2024-02-15T12:28:34;2.10;;;1.90;;
840;SDS011;406;48.566;13.450;2024-02-15T12:31:01;2.63;;;1.83;;
840;SDS011;406;48.566;13.450;2024-02-15T12:33:28;3.00;;;2.20;;
840;SDS011;406;48.566;13.450;2024-02-15T12:36:06;2.80;;;2.37;;
840;SDS011;406;48.566;13.450;2024-02-15T12:38:34;2.73;;;2.40;;
840;SDS011;406;48.566;13.450;2024-02-15T12:41:04;3.73;;;1.97;;
840;SDS011;406;48.566;13.450;2024-02-15T12:43:45;4.07;;;2.30;;
840;SDS011;406;48.566;13.450;2024-02-15T12:46:14;2.53;;;1.70;;
840;SDS011;406;48.566;13.450;2024-02-15T12:48:44;2.47;;;2.27;;
840;SDS011;406;48.566;13.450;2024-02-15T12:51:14;3.00;;;1.40;;
840;SDS011;406;48.566;13.450;2024-02-15T12:53:41;2.80;;;1.87;;
840;SDS011;406;48.566;13.450;2024-02-15T12:56:08;1.83;;;1.30;;
840;SDS011;406;48.566;13.450;2024-02-15T12:58:40;1.97;;;1.37;;
840;SDS011;406;48.566;13.450;2024-02-15T13:01:07;1.30;;;0.70;;
840;SDS011;406;48.566;13.450;2024-02-15T13:03:35;2.10;;;0.77;;
840;SDS011;406;48.566;13.450;2024-02-15T13:06:02;1.57;;;0.70;;
840;SDS011;406;48.566;13.450;2024-02-15T13:08:29;1.20;;;0.80;;
840;SDS011;406;48.566;13.450;2024-02-15T13:10:58;1.73;;;0.53;;
840;SDS011;406;48.566;13.450;2024-02-15T13:13:24;0.70;;;0.37;;
840;SDS011;406;48.566;13.450;2024-02-15T13:15:51;0.90;;;0.57;;
840;SDS011;406;48.566;13.450;2024-02-15T13:18:19;0.70;;;0.40;;
840;SDS011;406;48.566;13.450;2024-02-15T13:20:46;0.97;;;0.50;;
840;SDS011;406;48.566;13.450;2024-02-15T13:23:16;1.43;;;0.57;;
840;SDS011;406;48.566;13.450;2024-02-15T13:25:48;1.47;;;0.50;;
840;SDS011;406;48.566;13.450;2024-02-15T13:28:15;1.60;;;0.87;;
840;SDS011;406;48.566;13.450;2024-02-15T13:30:42;2.60;;;0.70;;
840;SDS011;406;48.566;13.450;2024-02-15T13:33:12;0.80;;;0.50;;
840;SDS011;406;48.566;13.450;2024-02-15T13:35:39;1.13;;;0.47;;
840;SDS011;406;48.566;13.450;2024-02-15T13:38:07;0.63;;;0.40;;
840;SDS011;406;48.566;13.450;2024-02-15T13:40:40;1.10;;;0.60;;
840;SDS011;406;48.566;13.450;2024-02-15T13:43:08;1.07;;;0.50;;
840;SDS011;406;48.566;13.450;2024-02-15T13:45:39;1.67;;;0.87;;
840;SDS011;406;48.566;13.450;2024-02-15T13:48:06;3.67;;;0.70;;
840;SDS011;406;48.566;13.450;2024-02-15T13:50:35;0.93;;;0.57;;
840;SDS011;406;48.566;13.450;2024-02-15T13:53:02;1.03;;;0.50;;
840;SDS011;406;48.566;13.450;2024-02-15T13:55:29;1.00;;;0.60;;
840;SDS011;406;48.566;13.450;2024-02-15T13:57:57;3.40;;;0.77;;
840;SDS011;406;48.566;13.450;2024-02-15T14:00:24;2.33;;;0.70;;
840;SDS011;406;48.566;13.450;2024-02-15T14:03:01;1.00;;;0.53;;
840;SDS011;406;48.566;13.450;2024-02-15T14:05:29;1.00;;;0.60;;
840;SDS011;406;48.566;13.450;2024-02-15T14:08:00;1.60;;;0.60;;
840;SDS011;406;48.566;13.450;2024-02-15T14:10:29;2.07;;;0.50;;
840;SDS011;406;48.566;13.450;2024-02-15T14:12:56;1.27;;;0.73;;
840;SDS011;406;48.566;13.450;2024-02-15T14:15:28;1.83;;;0.60;;
840;SDS011;406;48.566;13.450;2024-02-15T14:18:07;1.00;;;0.43;;
840;SDS011;406;48.566;13.450;2024-02-15T14:20:37;1.47;;;0.70;;
840;SDS011;406;48.566;13.450;2024-02-15T14:23:03;1.47;;;0.50;;
840;SDS011;406;48.566;13.450;2024-02-15T14:25:32;0.93;;;0.40;;
840;SDS011;406;48.566;13.450;2024-02-15T14:28:00;1.33;;;0.67;;
840;SDS011;406;48.566;13.450;2024-02-15T14:30:27;1.03;;;0.60;;
840;SDS011;406;48.566;13.450;2024-02-15T14:33:12;1.47;;;0.50;;
840;SDS011;406;48.566;13.450;2024-02-15T14:35:48;0.80;;;0.50;;
840;SDS011;406;48.566;13.450;2024-02-15T14:38:15;1.63;;;0.50;;
840;SDS011;406;48.566;13.450;2024-02-15T14:40:43;2.63;;;0.40;;
840;SDS011;406;48.566;13.450;2024-02-15T14:43:12;1.63;;;0.73;;
840;SDS011;406;48.566;13.450;2024-02-15T14:45:44;0.90;;;0.50;;
840;SDS011;406;48.566;13.450;2024-02-15T14:48:11;0.97;;;0.67;;
840;SDS011;406;48.566;13.450;2024-02-15T14:50:40;0.87;;;0.40;;
840;SDS011;406;48.566;13.450;2024-02-15T14:53:06;1.20;;;0.40;;
840;SDS011;406;48.566;13.450;2024-02-15T14:55:36;1.10;;;0.80;;
840;SDS011;406;48.566;13.450;2024-02-15T14:58:09;1.00;;;0.70;;
840;SDS011;406;48.566;13.450;2024-02-15T15:00:39;1.20;;;0.60;;
840;SDS011;406;48.566;13.450;2024-02-15T15:03:08;1.00;;;0.40;;
840;SDS011;406;48.566;13.450;2024-02-15T15:05:35;0.80;;;0.50;;
840;SDS011;406;48.566;13.450;2024-02-15T15:08:20;0.90;;;0.40;;
840;SDS011;406;48.566;13.450;2024-02-15T15:11:05;1.50;;;0.60;;
840;SDS011;406;48.566;13.450;2024-02-15T15:13:51;0.90;;;0.50;;
840;SDS011;406;48.566;13.450;2024-02-15T15:16:18;1.30;;;0.70;;
840;SDS011;406;48.566;13.450;2024-02-15T15:18:47;1.20;;;0.60;;
840;SDS011;406;48.566;13.450;2024-02-15T15:21:18;2.30;;;0.57;;
840;SDS011;406;48.566;13.450;2024-02-15T15:23:45;0.97;;;0.50;;
840;SDS011;406;48.566;13.450;2024-02-15T15:26:18;1.00;;;0.90;;
840;SDS011;406;48.566;13.450;2024-02-15T15:28:45;1.17;;;0.60;;
840;SDS011;406;48.566;13.450;2024-02-15T15:31:12;2.83;;;1.10;;
840;SDS011;406;48.566;13.450;2024-02-15T15:33:38;1.40;;;0.70;;
840;SDS011;406;48.566;13.450;2024-02-15T15:36:05;3.37;;;2.47;;
840;SDS011;406;48.566;13.450;2024-02-15T15:38:32;2.60;;;2.33;;
840;SDS011;406;48.566;13.450;2024-02-15T15:40:59;4.60;;;4.20;;
840;SDS011;406;48.566;13.450;2024-02-15T15:43:26;1.97;;;1.33;;
840;SDS011;406;48.566;13.450;2024-02-15T15:45:52;1.47;;;0.70;;
840;SDS011;406;48.566;13.450;2024-02-15T15:48:19;1.00;;;0.83;;
840;SDS011;406;48.566;13.450;2024-02-15T15:50:45;1.40;;;1.20;;
840;SDS011;406;48.566;13.450;2024-02-15T15:53:14;2.40;;;1.27;;
840;SDS011;406;48.566;13.450;2024-02-15T15:55:40;2.77;;;2.20;;
840;SDS011;406;48.566;13.450;2024-02-15T15:58:08;2.60;;;1.50;;